Pattison, Mississippi
Current Conditions -  °F | °C
As of 6:15 PM on Friday 28 Nov 2014 (Local Time) from KVKS Reporting Station
Clear Clear  
Wind Chill: 54°   Ceiling: Unl
Heat Index: 54°   Visibility: 10mi
Dew Point: 30°   Wind: 7mph
Humidity: 41%   Direction: 160°SSE
Pressure: 30.22"   Gusts: NA
Location:  31.89°N, 90.89°W
Report Text: KVKS 290015Z AUTO 16006KT 10SM CLR 12/M01 A3022 RMK A01
Loading
Personal Weather Stations






























Interactive Weather Map New forecast layout! Learn more

10-Day Weather Forecast

Advertisements
Track Severe Weather on mobile